sensor_id;sensor_type;location;lat;lon;timestamp;P1;durP1;ratioP1;P2;durP2;ratioP2
65924;SDS011;66010;52.084;5.412;2023-07-30T00:00:45;4.35;;;1.45;;
65924;SDS011;66010;52.084;5.412;2023-07-30T00:03:14;4.18;;;1.40;;
65924;SDS011;66010;52.084;5.412;2023-07-30T00:05:41;4.90;;;1.50;;
65924;SDS011;66010;52.084;5.412;2023-07-30T00:08:07;3.38;;;1.38;;
65924;SDS011;66010;52.084;5.412;2023-07-30T00:10:35;4.45;;;1.52;;
65924;SDS011;66010;52.084;5.412;2023-07-30T00:13:02;4.03;;;1.30;;
65924;SDS011;66010;52.084;5.412;2023-07-30T00:15:28;4.90;;;1.48;;
65924;SDS011;66010;52.084;5.412;2023-07-30T00:17:55;4.95;;;1.50;;
65924;SDS011;66010;52.084;5.412;2023-07-30T00:20:21;3.88;;;1.30;;
65924;SDS011;66010;52.084;5.412;2023-07-30T00:22:48;5.13;;;1.42;;
65924;SDS011;66010;52.084;5.412;2023-07-30T00:25:14;4.18;;;1.30;;
65924;SDS011;66010;52.084;5.412;2023-07-30T00:27:41;5.10;;;1.58;;
65924;SDS011;66010;52.084;5.412;2023-07-30T00:30:08;3.53;;;1.10;;
65924;SDS011;66010;52.084;5.412;2023-07-30T00:32:35;3.40;;;1.40;;
65924;SDS011;66010;52.084;5.412;2023-07-30T00:35:02;3.88;;;1.35;;
65924;SDS011;66010;52.084;5.412;2023-07-30T00:37:29;5.38;;;1.50;;
65924;SDS011;66010;52.084;5.412;2023-07-30T00:39:56;3.63;;;1.40;;
65924;SDS011;66010;52.084;5.412;2023-07-30T00:42:22;4.40;;;1.40;;
65924;SDS011;66010;52.084;5.412;2023-07-30T00:44:50;3.78;;;1.30;;
65924;SDS011;66010;52.084;5.412;2023-07-30T00:47:17;3.92;;;1.40;;
65924;SDS011;66010;52.084;5.412;2023-07-30T00:49:43;4.38;;;1.48;;
65924;SDS011;66010;52.084;5.412;2023-07-30T00:52:10;4.60;;;1.30;;
65924;SDS011;66010;52.084;5.412;2023-07-30T00:54:37;2.63;;;1.33;;
65924;SDS011;66010;52.084;5.412;2023-07-30T00:57:04;3.97;;;1.30;;
65924;SDS011;66010;52.084;5.412;2023-07-30T00:59:31;2.72;;;1.20;;
65924;SDS011;66010;52.084;5.412;2023-07-30T01:01:57;4.18;;;1.20;;
65924;SDS011;66010;52.084;5.412;2023-07-30T01:04:25;5.75;;;1.50;;
65924;SDS011;66010;52.084;5.412;2023-07-30T01:06:52;4.75;;;1.40;;
65924;SDS011;66010;52.084;5.412;2023-07-30T01:09:18;4.00;;;1.25;;
65924;SDS011;66010;52.084;5.412;2023-07-30T01:11:45;4.53;;;1.30;;
65924;SDS011;66010;52.084;5.412;2023-07-30T01:14:12;3.65;;;1.33;;
65924;SDS011;66010;52.084;5.412;2023-07-30T01:16:41;3.55;;;1.40;;
65924;SDS011;66010;52.084;5.412;2023-07-30T01:19:07;3.67;;;1.30;;
65924;SDS011;66010;52.084;5.412;2023-07-30T01:21:34;4.03;;;1.40;;
65924;SDS011;66010;52.084;5.412;2023-07-30T01:24:02;2.75;;;1.30;;
65924;SDS011;66010;52.084;5.412;2023-07-30T01:26:40;4.43;;;1.40;;
65924;SDS011;66010;52.084;5.412;2023-07-30T01:29:32;4.20;;;1.38;;
65924;SDS011;66010;52.084;5.412;2023-07-30T01:31:56;4.00;;;1.42;;
65924;SDS011;66010;52.084;5.412;2023-07-30T01:34:24;3.05;;;1.35;;
65924;SDS011;66010;52.084;5.412;2023-07-30T01:36:51;4.53;;;1.50;;
65924;SDS011;66010;52.084;5.412;2023-07-30T01:39:22;3.80;;;1.40;;
65924;SDS011;66010;52.084;5.412;2023-07-30T01:41:49;4.57;;;1.38;;
65924;SDS011;66010;52.084;5.412;2023-07-30T01:44:15;4.65;;;1.52;;
65924;SDS011;66010;52.084;5.412;2023-07-30T01:46:42;4.03;;;1.52;;
65924;SDS011;66010;52.084;5.412;2023-07-30T01:49:08;6.10;;;1.80;;
65924;SDS011;66010;52.084;5.412;2023-07-30T01:51:35;4.80;;;1.30;;
65924;SDS011;66010;52.084;5.412;2023-07-30T01:54:02;4.05;;;1.40;;
65924;SDS011;66010;52.084;5.412;2023-07-30T01:56:29;3.75;;;1.38;;
65924;SDS011;66010;52.084;5.412;2023-07-30T01:58:55;6.93;;;1.70;;
65924;SDS011;66010;52.084;5.412;2023-07-30T02:01:22;3.65;;;1.40;;
65924;SDS011;66010;52.084;5.412;2023-07-30T02:03:48;4.28;;;1.50;;
65924;SDS011;66010;52.084;5.412;2023-07-30T02:06:15;4.10;;;1.35;;
65924;SDS011;66010;52.084;5.412;2023-07-30T02:08:41;3.58;;;1.42;;
65924;SDS011;66010;52.084;5.412;2023-07-30T02:11:08;3.08;;;1.33;;
65924;SDS011;66010;52.084;5.412;2023-07-30T02:13:34;5.38;;;1.67;;
65924;SDS011;66010;52.084;5.412;2023-07-30T02:16:01;3.35;;;1.25;;
65924;SDS011;66010;52.084;5.412;2023-07-30T02:18:28;3.80;;;1.45;;
65924;SDS011;66010;52.084;5.412;2023-07-30T02:20:54;4.43;;;1.48;;
65924;SDS011;66010;52.084;5.412;2023-07-30T02:23:21;3.20;;;1.20;;
65924;SDS011;66010;52.084;5.412;2023-07-30T02:25:47;4.60;;;1.55;;
65924;SDS011;66010;52.084;5.412;2023-07-30T02:28:14;5.05;;;1.40;;
65924;SDS011;66010;52.084;5.412;2023-07-30T02:30:41;4.13;;;1.40;;
65924;SDS011;66010;52.084;5.412;2023-07-30T02:33:07;4.15;;;1.40;;
65924;SDS011;66010;52.084;5.412;2023-07-30T02:35:34;5.13;;;1.50;;
65924;SDS011;66010;52.084;5.412;2023-07-30T02:38:01;4.38;;;1.30;;
65924;SDS011;66010;52.084;5.412;2023-07-30T02:40:27;3.63;;;1.30;;
65924;SDS011;66010;52.084;5.412;2023-07-30T02:42:54;3.38;;;1.42;;
65924;SDS011;66010;52.084;5.412;2023-07-30T02:45:21;4.60;;;1.38;;
65924;SDS011;66010;52.084;5.412;2023-07-30T02:47:47;2.78;;;1.30;;
65924;SDS011;66010;52.084;5.412;2023-07-30T02:50:14;4.05;;;1.50;;
65924;SDS011;66010;52.084;5.412;2023-07-30T02:52:43;4.10;;;1.50;;
65924;SDS011;66010;52.084;5.412;2023-07-30T02:55:10;5.10;;;1.48;;
65924;SDS011;66010;52.084;5.412;2023-07-30T02:57:36;3.97;;;1.40;;
65924;SDS011;66010;52.084;5.412;2023-07-30T03:00:03;3.33;;;1.40;;
65924;SDS011;66010;52.084;5.412;2023-07-30T03:02:30;4.65;;;1.60;;
65924;SDS011;66010;52.084;5.412;2023-07-30T03:04:57;4.43;;;1.40;;
65924;SDS011;66010;52.084;5.412;2023-07-30T03:07:23;4.70;;;1.55;;
65924;SDS011;66010;52.084;5.412;2023-07-30T03:09:50;4.00;;;1.50;;
65924;SDS011;66010;52.084;5.412;2023-07-30T03:12:16;5.50;;;1.65;;
65924;SDS011;66010;52.084;5.412;2023-07-30T03:14:43;4.78;;;1.48;;
65924;SDS011;66010;52.084;5.412;2023-07-30T03:17:10;4.57;;;1.30;;
65924;SDS011;66010;52.084;5.412;2023-07-30T03:19:36;4.63;;;1.42;;
65924;SDS011;66010;52.084;5.412;2023-07-30T03:22:03;3.92;;;1.40;;
65924;SDS011;66010;52.084;5.412;2023-07-30T03:24:30;3.22;;;1.35;;
65924;SDS011;66010;52.084;5.412;2023-07-30T03:26:56;3.90;;;1.30;;
65924;SDS011;66010;52.084;5.412;2023-07-30T03:29:23;4.68;;;1.48;;
65924;SDS011;66010;52.084;5.412;2023-07-30T03:31:49;5.40;;;1.63;;
65924;SDS011;66010;52.084;5.412;2023-07-30T03:34:16;4.57;;;1.55;;
65924;SDS011;66010;52.084;5.412;2023-07-30T03:36:43;5.00;;;1.40;;
65924;SDS011;66010;52.084;5.412;2023-07-30T03:39:09;4.45;;;1.50;;
65924;SDS011;66010;52.084;5.412;2023-07-30T03:41:36;4.68;;;1.40;;
65924;SDS011;66010;52.084;5.412;2023-07-30T03:44:03;4.47;;;1.48;;
65924;SDS011;66010;52.084;5.412;2023-07-30T03:46:30;3.15;;;1.40;;
65924;SDS011;66010;52.084;5.412;2023-07-30T03:48:57;5.43;;;1.60;;
65924;SDS011;66010;52.084;5.412;2023-07-30T03:51:24;4.85;;;1.30;;
65924;SDS011;66010;52.084;5.412;2023-07-30T03:53:50;5.25;;;1.50;;
65924;SDS011;66010;52.084;5.412;2023-07-30T03:56:17;5.80;;;1.58;;
65924;SDS011;66010;52.084;5.412;2023-07-30T03:58:43;4.25;;;1.35;;
65924;SDS011;66010;52.084;5.412;2023-07-30T04:01:10;4.50;;;1.40;;
65924;SDS011;66010;52.084;5.412;2023-07-30T04:03:37;4.93;;;1.50;;
65924;SDS011;66010;52.084;5.412;2023-07-30T04:06:04;3.33;;;1.50;;
65924;SDS011;66010;52.084;5.412;2023-07-30T04:08:31;4.22;;;1.55;;
65924;SDS011;66010;52.084;5.412;2023-07-30T04:10:58;5.07;;;1.45;;
65924;SDS011;66010;52.084;5.412;2023-07-30T04:13:25;5.07;;;1.60;;
65924;SDS011;66010;52.084;5.412;2023-07-30T04:15:52;4.68;;;1.48;;
65924;SDS011;66010;52.084;5.412;2023-07-30T04:18:18;5.63;;;1.58;;
65924;SDS011;66010;52.084;5.412;2023-07-30T04:20:46;5.25;;;1.40;;
65924;SDS011;66010;52.084;5.412;2023-07-30T04:23:12;5.20;;;1.60;;
65924;SDS011;66010;52.084;5.412;2023-07-30T04:25:39;4.30;;;1.58;;
65924;SDS011;66010;52.084;5.412;2023-07-30T04:28:06;5.50;;;1.50;;
65924;SDS011;66010;52.084;5.412;2023-07-30T04:30:34;5.88;;;1.70;;
65924;SDS011;66010;52.084;5.412;2023-07-30T04:33:01;5.72;;;1.60;;
65924;SDS011;66010;52.084;5.412;2023-07-30T04:35:27;4.75;;;1.50;;
65924;SDS011;66010;52.084;5.412;2023-07-30T04:37:54;8.20;;;1.70;;
65924;SDS011;66010;52.084;5.412;2023-07-30T04:40:21;5.65;;;1.52;;
65924;SDS011;66010;52.084;5.412;2023-07-30T04:42:47;5.65;;;1.73;;
65924;SDS011;66010;52.084;5.412;2023-07-30T04:45:14;6.78;;;1.50;;
65924;SDS011;66010;52.084;5.412;2023-07-30T04:47:44;4.97;;;1.70;;
65924;SDS011;66010;52.084;5.412;2023-07-30T04:50:10;4.93;;;1.90;;
65924;SDS011;66010;52.084;5.412;2023-07-30T04:52:37;5.88;;;1.80;;
65924;SDS011;66010;52.084;5.412;2023-07-30T04:55:04;5.47;;;1.70;;
65924;SDS011;66010;52.084;5.412;2023-07-30T04:57:31;4.97;;;1.42;;
65924;SDS011;66010;52.084;5.412;2023-07-30T04:59:57;6.18;;;1.60;;
65924;SDS011;66010;52.084;5.412;2023-07-30T05:02:24;6.35;;;1.70;;
65924;SDS011;66010;52.084;5.412;2023-07-30T05:04:50;6.20;;;1.63;;
65924;SDS011;66010;52.084;5.412;2023-07-30T05:07:17;5.65;;;1.80;;
65924;SDS011;66010;52.084;5.412;2023-07-30T05:09:43;5.18;;;1.70;;
65924;SDS011;66010;52.084;5.412;2023-07-30T05:12:10;6.80;;;1.80;;
65924;SDS011;66010;52.084;5.412;2023-07-30T05:14:36;4.40;;;1.33;;
65924;SDS011;66010;52.084;5.412;2023-07-30T05:17:03;6.10;;;1.67;;
65924;SDS011;66010;52.084;5.412;2023-07-30T05:19:29;6.40;;;1.90;;
65924;SDS011;66010;52.084;5.412;2023-07-30T05:21:56;6.43;;;1.70;;
65924;SDS011;66010;52.084;5.412;2023-07-30T05:24:22;7.72;;;1.90;;
65924;SDS011;66010;52.084;5.412;2023-07-30T05:26:49;6.05;;;1.75;;
65924;SDS011;66010;52.084;5.412;2023-07-30T05:29:15;7.32;;;1.90;;
65924;SDS011;66010;52.084;5.412;2023-07-30T05:31:42;8.25;;;1.90;;
65924;SDS011;66010;52.084;5.412;2023-07-30T05:34:08;5.63;;;1.85;;
65924;SDS011;66010;52.084;5.412;2023-07-30T05:36:35;5.70;;;1.88;;
65924;SDS011;66010;52.084;5.412;2023-07-30T05:39:01;7.18;;;1.95;;
65924;SDS011;66010;52.084;5.412;2023-07-30T05:41:28;6.88;;;2.00;;
65924;SDS011;66010;52.084;5.412;2023-07-30T05:43:54;7.43;;;2.00;;
65924;SDS011;66010;52.084;5.412;2023-07-30T05:46:21;8.93;;;2.00;;
65924;SDS011;66010;52.084;5.412;2023-07-30T05:48:47;6.60;;;2.03;;
65924;SDS011;66010;52.084;5.412;2023-07-30T05:51:14;7.30;;;2.15;;
65924;SDS011;66010;52.084;5.412;2023-07-30T05:53:40;7.22;;;1.95;;
65924;SDS011;66010;52.084;5.412;2023-07-30T05:56:07;7.13;;;2.00;;
65924;SDS011;66010;52.084;5.412;2023-07-30T05:58:33;5.40;;;1.90;;
65924;SDS011;66010;52.084;5.412;2023-07-30T06:01:00;5.70;;;1.83;;
65924;SDS011;66010;52.084;5.412;2023-07-30T06:03:26;5.35;;;1.70;;
65924;SDS011;66010;52.084;5.412;2023-07-30T06:05:53;6.72;;;2.05;;
65924;SDS011;66010;52.084;5.412;2023-07-30T06:08:19;8.15;;;2.38;;
65924;SDS011;66010;52.084;5.412;2023-07-30T06:10:46;7.05;;;1.70;;
65924;SDS011;66010;52.084;5.412;2023-07-30T06:13:13;6.82;;;1.92;;
65924;SDS011;66010;52.084;5.412;2023-07-30T06:15:39;6.10;;;2.10;;
65924;SDS011;66010;52.084;5.412;2023-07-30T06:18:06;6.80;;;2.05;;
65924;SDS011;66010;52.084;5.412;2023-07-30T06:20:33;7.10;;;2.17;;
65924;SDS011;66010;52.084;5.412;2023-07-30T06:22:59;5.45;;;1.83;;
65924;SDS011;66010;52.084;5.412;2023-07-30T06:25:26;7.93;;;2.40;;
65924;SDS011;66010;52.084;5.412;2023-07-30T06:27:52;6.60;;;2.00;;
65924;SDS011;66010;52.084;5.412;2023-07-30T06:30:19;8.10;;;2.10;;
65924;SDS011;66010;52.084;5.412;2023-07-30T06:32:45;7.20;;;2.20;;
65924;SDS011;66010;52.084;5.412;2023-07-30T06:35:12;7.55;;;1.90;;
65924;SDS011;66010;52.084;5.412;2023-07-30T06:37:39;6.45;;;2.00;;
65924;SDS011;66010;52.084;5.412;2023-07-30T06:40:05;6.75;;;1.92;;
65924;SDS011;66010;52.084;5.412;2023-07-30T06:42:32;7.22;;;2.30;;
65924;SDS011;66010;52.084;5.412;2023-07-30T06:44:59;7.72;;;2.40;;
65924;SDS011;66010;52.084;5.412;2023-07-30T06:47:26;6.82;;;2.38;;
65924;SDS011;66010;52.084;5.412;2023-07-30T06:49:53;7.07;;;2.30;;
65924;SDS011;66010;52.084;5.412;2023-07-30T06:52:19;7.20;;;2.10;;
65924;SDS011;66010;52.084;5.412;2023-07-30T06:57:13;8.80;;;2.40;;
65924;SDS011;66010;52.084;5.412;2023-07-30T06:59:39;8.10;;;2.17;;
65924;SDS011;66010;52.084;5.412;2023-07-30T07:02:06;6.22;;;2.10;;
65924;SDS011;66010;52.084;5.412;2023-07-30T07:04:33;5.65;;;2.10;;
65924;SDS011;66010;52.084;5.412;2023-07-30T07:07:00;6.20;;;2.10;;
65924;SDS011;66010;52.084;5.412;2023-07-30T07:09:29;7.05;;;2.42;;
65924;SDS011;66010;52.084;5.412;2023-07-30T07:11:56;8.82;;;2.50;;
65924;SDS011;66010;52.084;5.412;2023-07-30T07:14:23;7.28;;;2.40;;
65924;SDS011;66010;52.084;5.412;2023-07-30T07:16:49;7.57;;;2.40;;
65924;SDS011;66010;52.084;5.412;2023-07-30T07:19:16;7.25;;;2.47;;
65924;SDS011;66010;52.084;5.412;2023-07-30T07:21:42;8.77;;;2.20;;
65924;SDS011;66010;52.084;5.412;2023-07-30T07:24:09;6.63;;;2.15;;
65924;SDS011;66010;52.084;5.412;2023-07-30T07:26:35;6.63;;;2.20;;
65924;SDS011;66010;52.084;5.412;2023-07-30T07:29:02;6.20;;;2.00;;
65924;SDS011;66010;52.084;5.412;2023-07-30T07:31:29;7.38;;;2.47;;
65924;SDS011;66010;52.084;5.412;2023-07-30T07:33:55;8.77;;;2.55;;
65924;SDS011;66010;52.084;5.412;2023-07-30T07:36:22;6.53;;;2.53;;
65924;SDS011;66010;52.084;5.412;2023-07-30T07:38:48;8.07;;;2.03;;
65924;SDS011;66010;52.084;5.412;2023-07-30T07:41:15;8.40;;;2.17;;
65924;SDS011;66010;52.084;5.412;2023-07-30T07:43:45;9.00;;;2.30;;
65924;SDS011;66010;52.084;5.412;2023-07-30T07:48:42;6.40;;;2.30;;
65924;SDS011;66010;52.084;5.412;2023-07-30T07:51:09;9.50;;;2.60;;
65924;SDS011;66010;52.084;5.412;2023-07-30T07:53:37;9.93;;;2.40;;
65924;SDS011;66010;52.084;5.412;2023-07-30T07:56:03;10.10;;;2.80;;
65924;SDS011;66010;52.084;5.412;2023-07-30T07:58:30;9.60;;;2.35;;
65924;SDS011;66010;52.084;5.412;2023-07-30T08:00:57;9.65;;;2.25;;
65924;SDS011;66010;52.084;5.412;2023-07-30T08:03:23;7.93;;;2.33;;
65924;SDS011;66010;52.084;5.412;2023-07-30T08:05:50;6.03;;;2.10;;
65924;SDS011;66010;52.084;5.412;2023-07-30T08:08:17;10.00;;;2.78;;
65924;SDS011;66010;52.084;5.412;2023-07-30T08:10:43;10.82;;;2.67;;
65924;SDS011;66010;52.084;5.412;2023-07-30T08:13:12;7.95;;;2.50;;
65924;SDS011;66010;52.084;5.412;2023-07-30T08:15:39;7.28;;;2.30;;
65924;SDS011;66010;52.084;5.412;2023-07-30T08:18:06;8.02;;;2.50;;
65924;SDS011;66010;52.084;5.412;2023-07-30T08:20:32;6.70;;;1.92;;
65924;SDS011;66010;52.084;5.412;2023-07-30T08:22:59;8.88;;;2.60;;
65924;SDS011;66010;52.084;5.412;2023-07-30T08:25:25;7.60;;;2.22;;
65924;SDS011;66010;52.084;5.412;2023-07-30T08:27:52;6.57;;;2.45;;
65924;SDS011;66010;52.084;5.412;2023-07-30T08:30:18;10.18;;;2.70;;
65924;SDS011;66010;52.084;5.412;2023-07-30T08:32:45;8.55;;;2.60;;
65924;SDS011;66010;52.084;5.412;2023-07-30T08:35:11;8.40;;;2.33;;
65924;SDS011;66010;52.084;5.412;2023-07-30T08:37:38;8.50;;;2.40;;
65924;SDS011;66010;52.084;5.412;2023-07-30T08:40:05;7.68;;;2.70;;
65924;SDS011;66010;52.084;5.412;2023-07-30T08:42:32;8.48;;;2.10;;
65924;SDS011;66010;52.084;5.412;2023-07-30T08:44:59;7.47;;;2.35;;
65924;SDS011;66010;52.084;5.412;2023-07-30T08:47:25;7.35;;;2.30;;
65924;SDS011;66010;52.084;5.412;2023-07-30T08:49:52;6.63;;;2.03;;
65924;SDS011;66010;52.084;5.412;2023-07-30T08:52:19;7.75;;;2.47;;
65924;SDS011;66010;52.084;5.412;2023-07-30T08:54:47;7.43;;;2.13;;
65924;SDS011;66010;52.084;5.412;2023-07-30T08:57:18;6.53;;;2.20;;
65924;SDS011;66010;52.084;5.412;2023-07-30T08:59:47;5.88;;;2.08;;
65924;SDS011;66010;52.084;5.412;2023-07-30T09:02:18;7.50;;;2.20;;
65924;SDS011;66010;52.084;5.412;2023-07-30T09:04:47;8.25;;;2.40;;
65924;SDS011;66010;52.084;5.412;2023-07-30T09:07:14;8.27;;;2.13;;
65924;SDS011;66010;52.084;5.412;2023-07-30T09:09:42;8.15;;;2.20;;
65924;SDS011;66010;52.084;5.412;2023-07-30T09:12:12;9.20;;;2.22;;
65924;SDS011;66010;52.084;5.412;2023-07-30T09:14:39;9.13;;;2.40;;
65924;SDS011;66010;52.084;5.412;2023-07-30T09:17:06;8.45;;;2.35;;
65924;SDS011;66010;52.084;5.412;2023-07-30T09:19:36;6.50;;;2.03;;
65924;SDS011;66010;52.084;5.412;2023-07-30T09:22:05;8.48;;;2.35;;
65924;SDS011;66010;52.084;5.412;2023-07-30T09:24:32;8.35;;;2.03;;
65924;SDS011;66010;52.084;5.412;2023-07-30T09:27:02;6.40;;;2.30;;
65924;SDS011;66010;52.084;5.412;2023-07-30T09:29:29;6.15;;;2.10;;
65924;SDS011;66010;52.084;5.412;2023-07-30T09:31:55;7.47;;;2.20;;
65924;SDS011;66010;52.084;5.412;2023-07-30T09:34:23;6.75;;;2.10;;
65924;SDS011;66010;52.084;5.412;2023-07-30T09:36:50;5.22;;;1.75;;
65924;SDS011;66010;52.084;5.412;2023-07-30T09:41:48;6.00;;;2.20;;
65924;SDS011;66010;52.084;5.412;2023-07-30T09:44:16;6.60;;;2.25;;
65924;SDS011;66010;52.084;5.412;2023-07-30T09:46:43;7.20;;;1.92;;
65924;SDS011;66010;52.084;5.412;2023-07-30T09:49:10;7.00;;;2.10;;
65924;SDS011;66010;52.084;5.412;2023-07-30T09:51:37;7.10;;;2.08;;
65924;SDS011;66010;52.084;5.412;2023-07-30T09:54:06;8.18;;;2.20;;
65924;SDS011;66010;52.084;5.412;2023-07-30T09:56:32;6.57;;;2.00;;
65924;SDS011;66010;52.084;5.412;2023-07-30T09:58:59;5.50;;;2.00;;
65924;SDS011;66010;52.084;5.412;2023-07-30T10:01:25;7.82;;;2.00;;
65924;SDS011;66010;52.084;5.412;2023-07-30T10:06:19;5.95;;;1.92;;
65924;SDS011;66010;52.084;5.412;2023-07-30T10:08:46;6.40;;;1.65;;
65924;SDS011;66010;52.084;5.412;2023-07-30T10:11:13;4.70;;;1.80;;
65924;SDS011;66010;52.084;5.412;2023-07-30T10:16:12;6.57;;;1.83;;
65924;SDS011;66010;52.084;5.412;2023-07-30T10:18:39;6.95;;;1.90;;
65924;SDS011;66010;52.084;5.412;2023-07-30T10:21:09;5.50;;;1.80;;
65924;SDS011;66010;52.084;5.412;2023-07-30T10:23:45;5.45;;;1.95;;
65924;SDS011;66010;52.084;5.412;2023-07-30T10:26:12;5.60;;;1.92;;
65924;SDS011;66010;52.084;5.412;2023-07-30T10:28:38;5.68;;;1.75;;
65924;SDS011;66010;52.084;5.412;2023-07-30T10:31:09;6.55;;;1.90;;
65924;SDS011;66010;52.084;5.412;2023-07-30T10:33:51;6.53;;;1.88;;
65924;SDS011;66010;52.084;5.412;2023-07-30T10:36:18;6.63;;;2.15;;
65924;SDS011;66010;52.084;5.412;2023-07-30T10:38:52;6.28;;;1.92;;
65924;SDS011;66010;52.084;5.412;2023-07-30T10:41:20;5.93;;;1.90;;
65924;SDS011;66010;52.084;5.412;2023-07-30T10:43:48;6.53;;;2.10;;
65924;SDS011;66010;52.084;5.412;2023-07-30T10:46:16;4.25;;;1.63;;
65924;SDS011;66010;52.084;5.412;2023-07-30T10:48:43;4.22;;;1.98;;
65924;SDS011;66010;52.084;5.412;2023-07-30T10:51:14;8.40;;;2.15;;
65924;SDS011;66010;52.084;5.412;2023-07-30T10:53:42;5.68;;;1.95;;
65924;SDS011;66010;52.084;5.412;2023-07-30T10:56:10;6.57;;;2.05;;
65924;SDS011;66010;52.084;5.412;2023-07-30T10:58:38;6.38;;;1.80;;
65924;SDS011;66010;52.084;5.412;2023-07-30T11:01:05;5.75;;;1.73;;
65924;SDS011;66010;52.084;5.412;2023-07-30T11:03:31;5.22;;;1.80;;
65924;SDS011;66010;52.084;5.412;2023-07-30T11:05:58;5.68;;;1.73;;
65924;SDS011;66010;52.084;5.412;2023-07-30T11:08:42;6.47;;;2.00;;
65924;SDS011;66010;52.084;5.412;2023-07-30T11:11:09;5.43;;;1.85;;
65924;SDS011;66010;52.084;5.412;2023-07-30T11:16:04;4.78;;;1.92;;
65924;SDS011;66010;52.084;5.412;2023-07-30T11:18:31;6.80;;;2.08;;
65924;SDS011;66010;52.084;5.412;2023-07-30T11:23:30;6.38;;;2.03;;
65924;SDS011;66010;52.084;5.412;2023-07-30T11:25:56;4.97;;;1.75;;
65924;SDS011;66010;52.084;5.412;2023-07-30T11:28:29;5.50;;;1.80;;
65924;SDS011;66010;52.084;5.412;2023-07-30T11:30:57;6.47;;;1.90;;
65924;SDS011;66010;52.084;5.412;2023-07-30T11:33:25;5.57;;;1.70;;
65924;SDS011;66010;52.084;5.412;2023-07-30T11:35:51;5.05;;;1.67;;
65924;SDS011;66010;52.084;5.412;2023-07-30T11:38:18;6.57;;;2.15;;
65924;SDS011;66010;52.084;5.412;2023-07-30T11:40:46;5.47;;;1.80;;
65924;SDS011;66010;52.084;5.412;2023-07-30T11:45:39;5.40;;;1.60;;
65924;SDS011;66010;52.084;5.412;2023-07-30T11:48:06;5.35;;;1.83;;
65924;SDS011;66010;52.084;5.412;2023-07-30T11:50:45;5.32;;;1.98;;
65924;SDS011;66010;52.084;5.412;2023-07-30T11:53:13;6.60;;;1.70;;
65924;SDS011;66010;52.084;5.412;2023-07-30T11:55:40;6.38;;;2.08;;
65924;SDS011;66010;52.084;5.412;2023-07-30T11:58:10;4.80;;;2.00;;
65924;SDS011;66010;52.084;5.412;2023-07-30T12:00:37;6.57;;;1.98;;
65924;SDS011;66010;52.084;5.412;2023-07-30T12:03:05;5.93;;;1.83;;
65924;SDS011;66010;52.084;5.412;2023-07-30T12:05:32;6.53;;;1.92;;
65924;SDS011;66010;52.084;5.412;2023-07-30T12:08:04;5.07;;;1.67;;
65924;SDS011;66010;52.084;5.412;2023-07-30T12:10:46;5.10;;;1.80;;
65924;SDS011;66010;52.084;5.412;2023-07-30T12:13:18;4.25;;;1.67;;
65924;SDS011;66010;52.084;5.412;2023-07-30T12:15:52;5.55;;;1.70;;
65924;SDS011;66010;52.084;5.412;2023-07-30T12:18:19;4.70;;;1.65;;
65924;SDS011;66010;52.084;5.412;2023-07-30T12:20:46;6.10;;;1.73;;
65924;SDS011;66010;52.084;5.412;2023-07-30T12:25:39;4.00;;;1.58;;
65924;SDS011;66010;52.084;5.412;2023-07-30T12:28:06;4.75;;;1.70;;
65924;SDS011;66010;52.084;5.412;2023-07-30T12:30:32;5.40;;;1.67;;
65924;SDS011;66010;52.084;5.412;2023-07-30T12:32:59;5.38;;;1.65;;
65924;SDS011;66010;52.084;5.412;2023-07-30T12:35:26;5.88;;;1.70;;
65924;SDS011;66010;52.084;5.412;2023-07-30T12:37:53;5.18;;;1.60;;
65924;SDS011;66010;52.084;5.412;2023-07-30T12:40:20;4.22;;;1.50;;
65924;SDS011;66010;52.084;5.412;2023-07-30T12:42:46;5.25;;;1.60;;
65924;SDS011;66010;52.084;5.412;2023-07-30T12:45:13;5.80;;;1.65;;
65924;SDS011;66010;52.084;5.412;2023-07-30T12:47:40;4.22;;;1.50;;
65924;SDS011;66010;52.084;5.412;2023-07-30T12:50:07;5.45;;;1.70;;
65924;SDS011;66010;52.084;5.412;2023-07-30T12:52:34;3.50;;;1.30;;
65924;SDS011;66010;52.084;5.412;2023-07-30T12:55:00;5.55;;;1.55;;
65924;SDS011;66010;52.084;5.412;2023-07-30T12:57:27;4.43;;;1.55;;
65924;SDS011;66010;52.084;5.412;2023-07-30T12:59:54;5.47;;;1.50;;
65924;SDS011;66010;52.084;5.412;2023-07-30T13:02:20;4.85;;;1.38;;
65924;SDS011;66010;52.084;5.412;2023-07-30T13:04:47;3.40;;;1.30;;
65924;SDS011;66010;52.084;5.412;2023-07-30T13:07:14;3.10;;;1.48;;
65924;SDS011;66010;52.084;5.412;2023-07-30T13:12:07;5.25;;;1.30;;
65924;SDS011;66010;52.084;5.412;2023-07-30T13:14:34;4.78;;;1.42;;
65924;SDS011;66010;52.084;5.412;2023-07-30T13:17:00;3.83;;;1.30;;
65924;SDS011;66010;52.084;5.412;2023-07-30T13:19:27;3.40;;;1.15;;
65924;SDS011;66010;52.084;5.412;2023-07-30T13:21:56;4.30;;;1.35;;
65924;SDS011;66010;52.084;5.412;2023-07-30T13:24:22;3.00;;;1.10;;
65924;SDS011;66010;52.084;5.412;2023-07-30T13:26:49;4.15;;;1.10;;
65924;SDS011;66010;52.084;5.412;2023-07-30T13:29:15;5.63;;;1.30;;
65924;SDS011;66010;52.084;5.412;2023-07-30T13:31:42;3.80;;;1.20;;
65924;SDS011;66010;52.084;5.412;2023-07-30T13:34:08;4.10;;;1.30;;
65924;SDS011;66010;52.084;5.412;2023-07-30T13:36:35;3.97;;;1.25;;
65924;SDS011;66010;52.084;5.412;2023-07-30T13:39:02;4.03;;;1.20;;
65924;SDS011;66010;52.084;5.412;2023-07-30T13:41:28;4.60;;;1.30;;
65924;SDS011;66010;52.084;5.412;2023-07-30T13:43:55;3.50;;;1.30;;
65924;SDS011;66010;52.084;5.412;2023-07-30T13:46:22;2.78;;;1.00;;
65924;SDS011;66010;52.084;5.412;2023-07-30T13:48:48;3.65;;;1.20;;
65924;SDS011;66010;52.084;5.412;2023-07-30T13:51:15;1.90;;;1.10;;
65924;SDS011;66010;52.084;5.412;2023-07-30T13:53:41;4.97;;;1.30;;
65924;SDS011;66010;52.084;5.412;2023-07-30T13:56:08;2.55;;;1.13;;
65924;SDS011;66010;52.084;5.412;2023-07-30T13:58:35;4.20;;;1.23;;
65924;SDS011;66010;52.084;5.412;2023-07-30T14:01:01;4.47;;;1.20;;
65924;SDS011;66010;52.084;5.412;2023-07-30T14:03:28;4.88;;;1.30;;
65924;SDS011;66010;52.084;5.412;2023-07-30T14:08:22;2.92;;;1.00;;
65924;SDS011;66010;52.084;5.412;2023-07-30T14:10:48;4.57;;;1.20;;
65924;SDS011;66010;52.084;5.412;2023-07-30T14:13:15;5.28;;;1.20;;
65924;SDS011;66010;52.084;5.412;2023-07-30T14:15:42;3.25;;;1.13;;
65924;SDS011;66010;52.084;5.412;2023-07-30T14:18:08;5.43;;;1.20;;
65924;SDS011;66010;52.084;5.412;2023-07-30T14:20:35;3.90;;;1.10;;
65924;SDS011;66010;52.084;5.412;2023-07-30T14:23:04;4.20;;;1.20;;
65924;SDS011;66010;52.084;5.412;2023-07-30T14:25:30;5.07;;;1.30;;
65924;SDS011;66010;52.084;5.412;2023-07-30T14:27:58;8.18;;;1.63;;
65924;SDS011;66010;52.084;5.412;2023-07-30T14:30:25;7.88;;;1.60;;
65924;SDS011;66010;52.084;5.412;2023-07-30T14:32:51;7.13;;;1.50;;
65924;SDS011;66010;52.084;5.412;2023-07-30T14:35:18;8.10;;;1.50;;
65924;SDS011;66010;52.084;5.412;2023-07-30T14:37:44;7.30;;;1.80;;
65924;SDS011;66010;52.084;5.412;2023-07-30T14:40:11;8.18;;;1.48;;
65924;SDS011;66010;52.084;5.412;2023-07-30T14:42:37;7.63;;;1.38;;
65924;SDS011;66010;52.084;5.412;2023-07-30T14:45:06;8.23;;;1.52;;
65924;SDS011;66010;52.084;5.412;2023-07-30T14:47:33;5.50;;;1.27;;
65924;SDS011;66010;52.084;5.412;2023-07-30T14:49:59;7.85;;;1.75;;
65924;SDS011;66010;52.084;5.412;2023-07-30T14:52:26;10.30;;;1.67;;
65924;SDS011;66010;52.084;5.412;2023-07-30T14:54:53;6.05;;;1.45;;
65924;SDS011;66010;52.084;5.412;2023-07-30T14:57:19;8.30;;;1.80;;
65924;SDS011;66010;52.084;5.412;2023-07-30T14:59:46;8.70;;;1.42;;
65924;SDS011;66010;52.084;5.412;2023-07-30T15:02:13;9.77;;;1.80;;
65924;SDS011;66010;52.084;5.412;2023-07-30T15:04:39;9.88;;;1.70;;
65924;SDS011;66010;52.084;5.412;2023-07-30T15:07:06;7.03;;;1.55;;
65924;SDS011;66010;52.084;5.412;2023-07-30T15:09:35;7.38;;;1.70;;
65924;SDS011;66010;52.084;5.412;2023-07-30T15:12:03;11.48;;;1.98;;
65924;SDS011;66010;52.084;5.412;2023-07-30T15:14:30;7.65;;;1.65;;